Aérodrome :
LOGIN :

S'inscrire | Disclaimer

   EN    FR    IT 

 










Légende :    VFR   VFR Marginal   IFR   IFR Intensif   IFR Très Intensif
Visi : 
Plafond : 
>= 8 km
>= 3000ft
5 à 8 km
1000 à 3000 ft
1500m à 5 km
500 à 1000 ft
800 à 1500m
200 à 500 ft
< 800m
< 200 ft
Symboles :   Orages  Brouillard  Fortes neiges  Fortes précipitations  Vent > 20 kt
SIGMETs :   Divers  Orages  Givrage  Turbulence  Onde Orograph.  Cendres Volcan.







- Altitude de l'aérodrome : 584 ft
- Voir les cartes d'approche


LFPV - Villacoublay Vélizy

METARs EXPIRÉS :
  • 241430Z AUTO 22009KT 170V280 CAVOK 23/10 Q1018 NOSIG
  • 241400Z AUTO 22009KT 190V260 CAVOK 23/11 Q1018 NOSIG
  • 241330Z AUTO 24011KT 210V270 CAVOK 21/11 Q1018 NOSIG
  • 241300Z AUTO 24010KT CAVOK 22/11 Q1019 NOSIG
  • 241230Z AUTO 23008KT 180V270 9999 FEW047 OVC054 22/11 Q1019 NOSIG
  • 241200Z AUTO 21007KT 180V250 9999 FEW044 OVC050 21/11 Q1019 NOSIG

Prévision TAF périmée.
Pas de NOTAMs connus pour ce terrain.



MET'MAP, la Météo Aéronautique d'un coup d'oeil ! - Copyright ORBIFLY Décembre 2007 - Disclaimer

ORBIFLY MET'MAP TEAM :

Programmation & Développement : Alexandra Zaïnal
Conception & Développement : Baudouin d'Aumeries
Co-Programmation & Développement : Marc-Olivier Méhu
Soutien technique & logistique : Manuel Goepfert

Contact : metmap@orbifly.com




SOURCES & CREDITS :

   NOAA